sensor_id;sensor_type;location;lat;lon;timestamp;pressure;altitude;pressure_sealevel;temperature;humidity
17505;BME280;8870;50.950;11.762;2024-02-21T00:02:56;99046.56;;;7.20;100.00
17505;BME280;8870;50.950;11.762;2024-02-21T00:08:17;99049.72;;;7.25;100.00
17505;BME280;8870;50.950;11.762;2024-02-21T00:13:47;99039.34;;;7.32;100.00
17505;BME280;8870;50.950;11.762;2024-02-21T00:19:08;99027.75;;;7.32;100.00
17505;BME280;8870;50.950;11.762;2024-02-21T00:24:39;99024.25;;;7.31;100.00
17505;BME280;8870;50.950;11.762;2024-02-21T00:29:57;99020.84;;;7.29;100.00
17505;BME280;8870;50.950;11.762;2024-02-21T00:35:31;99014.75;;;7.27;100.00
17505;BME280;8870;50.950;11.762;2024-02-21T00:40:49;99010.63;;;7.23;100.00
17505;BME280;8870;50.950;11.762;2024-02-21T00:46:20;99007.94;;;7.23;100.00
17505;BME280;8870;50.950;11.762;2024-02-21T00:51:41;98988.19;;;7.24;100.00
17505;BME280;8870;50.950;11.762;2024-02-21T00:57:12;98995.25;;;7.25;100.00
17505;BME280;8870;50.950;11.762;2024-02-21T01:02:31;98991.00;;;7.22;100.00
17505;BME280;8870;50.950;11.762;2024-02-21T01:08:05;98990.16;;;7.22;100.00
17505;BME280;8870;50.950;11.762;2024-02-21T01:13:24;98982.81;;;7.24;100.00
17505;BME280;8870;50.950;11.762;2024-02-21T01:18:54;98981.16;;;7.23;100.00
17505;BME280;8870;50.950;11.762;2024-02-21T01:24:15;98973.34;;;7.20;100.00
17505;BME280;8870;50.950;11.762;2024-02-21T01:29:46;98965.81;;;7.14;100.00
17505;BME280;8870;50.950;11.762;2024-02-21T01:35:05;98959.00;;;7.09;100.00
17505;BME280;8870;50.950;11.762;2024-02-21T01:40:39;98949.50;;;7.05;100.00
17505;BME280;8870;50.950;11.762;2024-02-21T01:45:58;98958.03;;;7.11;100.00
17505;BME280;8870;50.950;11.762;2024-02-21T01:51:30;98942.66;;;7.13;100.00
17505;BME280;8870;50.950;11.762;2024-02-21T01:56:52;98926.84;;;7.09;100.00
17505;BME280;8870;50.950;11.762;2024-02-21T02:02:24;98911.88;;;7.07;100.00
17505;BME280;8870;50.950;11.762;2024-02-21T02:07:43;98914.53;;;7.07;100.00
17505;BME280;8870;50.950;11.762;2024-02-21T02:13:17;98898.63;;;7.05;100.00
17505;BME280;8870;50.950;11.762;2024-02-21T02:18:36;98902.25;;;7.04;100.00
17505;BME280;8870;50.950;11.762;2024-02-21T02:24:09;98896.06;;;7.04;100.00
17505;BME280;8870;50.950;11.762;2024-02-21T02:29:32;98895.44;;;7.00;100.00
17505;BME280;8870;50.950;11.762;2024-02-21T02:35:03;98884.41;;;6.93;100.00
17505;BME280;8870;50.950;11.762;2024-02-21T02:40:38;98880.41;;;6.88;100.00
17505;BME280;8870;50.950;11.762;2024-02-21T02:45:57;98881.16;;;6.78;100.00
17505;BME280;8870;50.950;11.762;2024-02-21T02:51:28;98883.78;;;6.90;100.00
17505;BME280;8870;50.950;11.762;2024-02-21T02:56:49;98899.81;;;7.01;100.00
17505;BME280;8870;50.950;11.762;2024-02-21T03:02:20;98891.06;;;7.11;100.00
17505;BME280;8870;50.950;11.762;2024-02-21T03:07:39;98884.47;;;7.03;100.00
17505;BME280;8870;50.950;11.762;2024-02-21T03:13:13;98876.06;;;6.75;100.00
17505;BME280;8870;50.950;11.762;2024-02-21T03:18:32;98889.13;;;6.57;100.00
17505;BME280;8870;50.950;11.762;2024-02-21T03:24:05;98890.34;;;6.42;100.00
17505;BME280;8870;50.950;11.762;2024-02-21T03:29:26;98886.59;;;6.33;100.00
17505;BME280;8870;50.950;11.762;2024-02-21T03:34:57;98886.22;;;6.26;100.00
17505;BME280;8870;50.950;11.762;2024-02-21T03:40:29;98888.44;;;6.21;100.00
17505;BME280;8870;50.950;11.762;2024-02-21T03:45:49;98898.41;;;6.19;100.00
17505;BME280;8870;50.950;11.762;2024-02-21T03:51:20;98903.16;;;6.15;100.00
17505;BME280;8870;50.950;11.762;2024-02-21T03:56:41;98906.06;;;6.12;100.00
17505;BME280;8870;50.950;11.762;2024-02-21T04:02:15;98906.19;;;6.11;100.00
17505;BME280;8870;50.950;11.762;2024-02-21T04:07:34;98899.59;;;6.15;100.00
17505;BME280;8870;50.950;11.762;2024-02-21T04:13:06;98895.94;;;6.16;100.00
17505;BME280;8870;50.950;11.762;2024-02-21T04:18:26;98886.72;;;6.20;100.00
17505;BME280;8870;50.950;11.762;2024-02-21T04:23:57;98882.44;;;6.17;100.00
17505;BME280;8870;50.950;11.762;2024-02-21T04:29:17;98880.88;;;6.15;100.00
17505;BME280;8870;50.950;11.762;2024-02-21T04:34:52;98881.97;;;6.12;100.00
17505;BME280;8870;50.950;11.762;2024-02-21T04:40:23;98875.16;;;6.08;100.00
17505;BME280;8870;50.950;11.762;2024-02-21T04:45:42;98863.97;;;6.03;100.00
17505;BME280;8870;50.950;11.762;2024-02-21T04:56:58;98867.63;;;6.02;100.00
17505;BME280;8870;50.950;11.762;2024-02-21T05:02:17;98872.75;;;6.05;100.00
17505;BME280;8870;50.950;11.762;2024-02-21T05:07:49;98862.66;;;6.09;100.00
17505;BME280;8870;50.950;11.762;2024-02-21T05:13:09;98858.63;;;6.14;100.00
17505;BME280;8870;50.950;11.762;2024-02-21T05:18:41;98846.97;;;6.15;100.00
17505;BME280;8870;50.950;11.762;2024-02-21T05:24:00;98846.09;;;6.15;100.00
17505;BME280;8870;50.950;11.762;2024-02-21T05:29:33;98837.97;;;6.16;100.00
17505;BME280;8870;50.950;11.762;2024-02-21T05:34:52;98832.84;;;6.13;100.00
17505;BME280;8870;50.950;11.762;2024-02-21T05:40:22;98812.41;;;6.12;100.00
17505;BME280;8870;50.950;11.762;2024-02-21T05:45:43;98818.75;;;6.11;100.00
17505;BME280;8870;50.950;11.762;2024-02-21T05:51:15;98794.81;;;6.10;100.00
17505;BME280;8870;50.950;11.762;2024-02-21T05:56:33;98790.53;;;6.07;100.00
17505;BME280;8870;50.950;11.762;2024-02-21T06:02:07;98793.34;;;6.06;100.00
17505;BME280;8870;50.950;11.762;2024-02-21T06:07:26;98792.75;;;6.02;100.00
17505;BME280;8870;50.950;11.762;2024-02-21T06:12:57;98787.81;;;5.96;100.00
17505;BME280;8870;50.950;11.762;2024-02-21T06:18:19;98790.78;;;5.93;100.00
17505;BME280;8870;50.950;11.762;2024-02-21T06:23:49;98795.75;;;5.97;100.00
17505;BME280;8870;50.950;11.762;2024-02-21T06:29:08;98799.78;;;6.03;100.00
17505;BME280;8870;50.950;11.762;2024-02-21T06:34:41;98800.25;;;6.08;100.00
17505;BME280;8870;50.950;11.762;2024-02-21T06:40:00;98808.03;;;6.11;100.00
17505;BME280;8870;50.950;11.762;2024-02-21T06:45:31;98804.41;;;6.12;100.00
17505;BME280;8870;50.950;11.762;2024-02-21T06:50:51;98788.09;;;6.15;100.00
17505;BME280;8870;50.950;11.762;2024-02-21T06:56:24;98794.88;;;6.20;100.00
17505;BME280;8870;50.950;11.762;2024-02-21T07:01:45;98813.25;;;6.24;100.00
17505;BME280;8870;50.950;11.762;2024-02-21T07:07:19;98835.28;;;6.28;100.00
17505;BME280;8870;50.950;11.762;2024-02-21T07:12:38;98837.56;;;6.32;100.00
17505;BME280;8870;50.950;11.762;2024-02-21T07:18:11;98836.47;;;6.35;100.00
17505;BME280;8870;50.950;11.762;2024-02-21T07:23:31;98852.28;;;6.38;100.00
17505;BME280;8870;50.950;11.762;2024-02-21T07:29:03;98863.59;;;6.42;100.00
17505;BME280;8870;50.950;11.762;2024-02-21T07:34:21;98840.81;;;6.47;100.00
17505;BME280;8870;50.950;11.762;2024-02-21T07:39:54;98820.59;;;6.55;100.00
17505;BME280;8870;50.950;11.762;2024-02-21T07:45:13;98807.22;;;6.55;100.00
17505;BME280;8870;50.950;11.762;2024-02-21T07:50:49;98815.53;;;6.52;100.00
17505;BME280;8870;50.950;11.762;2024-02-21T07:56:20;98804.19;;;6.48;100.00
17505;BME280;8870;50.950;11.762;2024-02-21T08:01:52;98808.72;;;6.47;100.00
17505;BME280;8870;50.950;11.762;2024-02-21T08:07:14;98826.47;;;6.48;100.00
17505;BME280;8870;50.950;11.762;2024-02-21T08:12:50;98823.66;;;6.50;100.00
17505;BME280;8870;50.950;11.762;2024-02-21T08:18:09;98826.22;;;6.52;100.00
17505;BME280;8870;50.950;11.762;2024-02-21T08:23:41;98822.44;;;6.54;100.00
17505;BME280;8870;50.950;11.762;2024-02-21T08:29:02;98820.13;;;6.61;100.00
17505;BME280;8870;50.950;11.762;2024-02-21T08:34:34;98821.28;;;6.68;100.00
17505;BME280;8870;50.950;11.762;2024-02-21T08:39:52;98818.22;;;6.73;100.00
17505;BME280;8870;50.950;11.762;2024-02-21T08:45:28;98807.88;;;6.79;100.00
17505;BME280;8870;50.950;11.762;2024-02-21T08:50:53;98800.31;;;6.85;100.00
17505;BME280;8870;50.950;11.762;2024-02-21T08:56:13;98784.69;;;6.90;100.00
17505;BME280;8870;50.950;11.762;2024-02-21T09:01:47;98787.84;;;6.95;100.00
17505;BME280;8870;50.950;11.762;2024-02-21T09:07:06;98778.31;;;7.02;100.00
17505;BME280;8870;50.950;11.762;2024-02-21T09:12:37;98766.09;;;7.09;100.00
17505;BME280;8870;50.950;11.762;2024-02-21T09:17:57;98762.88;;;7.16;100.00
17505;BME280;8870;50.950;11.762;2024-02-21T09:23:29;98755.75;;;7.26;100.00
17505;BME280;8870;50.950;11.762;2024-02-21T09:28:48;98754.94;;;7.35;100.00
17505;BME280;8870;50.950;11.762;2024-02-21T09:34:22;98745.16;;;7.46;100.00
17505;BME280;8870;50.950;11.762;2024-02-21T09:39:41;98740.69;;;7.56;100.00
17505;BME280;8870;50.950;11.762;2024-02-21T09:45:19;98733.38;;;7.68;100.00
17505;BME280;8870;50.950;11.762;2024-02-21T09:50:41;98724.13;;;7.82;100.00
17505;BME280;8870;50.950;11.762;2024-02-21T09:56:15;98722.59;;;7.89;100.00
17505;BME280;8870;50.950;11.762;2024-02-21T10:01:33;98704.84;;;7.98;100.00
17505;BME280;8870;50.950;11.762;2024-02-21T10:07:07;98688.19;;;8.14;100.00
17505;BME280;8870;50.950;11.762;2024-02-21T10:12:26;98690.59;;;8.27;100.00
17505;BME280;8870;50.950;11.762;2024-02-21T10:17:59;98692.59;;;8.35;100.00
17505;BME280;8870;50.950;11.762;2024-02-21T10:23:20;98683.41;;;8.37;100.00
17505;BME280;8870;50.950;11.762;2024-02-21T10:28:53;98682.44;;;8.48;100.00
17505;BME280;8870;50.950;11.762;2024-02-21T10:34:16;98669.72;;;8.60;100.00
17505;BME280;8870;50.950;11.762;2024-02-21T10:39:51;98673.09;;;8.62;100.00
17505;BME280;8870;50.950;11.762;2024-02-21T10:45:29;98657.84;;;8.62;100.00
17505;BME280;8870;50.950;11.762;2024-02-21T10:50:57;98650.06;;;8.69;100.00
17505;BME280;8870;50.950;11.762;2024-02-21T10:56:31;98625.84;;;8.79;100.00
17505;BME280;8870;50.950;11.762;2024-02-21T11:02:04;98611.97;;;8.93;100.00
17505;BME280;8870;50.950;11.762;2024-02-21T11:07:22;98601.75;;;9.07;100.00
17505;BME280;8870;50.950;11.762;2024-02-21T11:13:05;98577.38;;;9.18;100.00
17505;BME280;8870;50.950;11.762;2024-02-21T11:18:24;98566.91;;;9.15;100.00
17505;BME280;8870;50.950;11.762;2024-02-21T11:23:55;98577.47;;;9.27;100.00
17505;BME280;8870;50.950;11.762;2024-02-21T11:29:23;98554.53;;;9.50;100.00
17505;BME280;8870;50.950;11.762;2024-02-21T11:34:55;98520.06;;;9.64;100.00
17505;BME280;8870;50.950;11.762;2024-02-21T11:40:17;98520.13;;;9.72;100.00
17505;BME280;8870;50.950;11.762;2024-02-21T11:45:50;98483.56;;;9.79;100.00
17505;BME280;8870;50.950;11.762;2024-02-21T11:51:24;98480.88;;;9.79;100.00
17505;BME280;8870;50.950;11.762;2024-02-21T11:56:56;98483.16;;;9.92;100.00
17505;BME280;8870;50.950;11.762;2024-02-21T12:02:30;98470.97;;;10.06;100.00
17505;BME280;8870;50.950;11.762;2024-02-21T12:07:48;98458.81;;;10.20;100.00
17505;BME280;8870;50.950;11.762;2024-02-21T12:13:23;98454.97;;;10.31;100.00
17505;BME280;8870;50.950;11.762;2024-02-21T12:18:43;98428.97;;;10.40;100.00
17505;BME280;8870;50.950;11.762;2024-02-21T12:24:17;98420.28;;;10.46;100.00
17505;BME280;8870;50.950;11.762;2024-02-21T12:29:36;98404.13;;;10.46;100.00
17505;BME280;8870;50.950;11.762;2024-02-21T12:35:10;98397.88;;;10.45;100.00
17505;BME280;8870;50.950;11.762;2024-02-21T12:40:28;98378.53;;;10.50;100.00
17505;BME280;8870;50.950;11.762;2024-02-21T12:45:59;98360.25;;;10.62;100.00
17505;BME280;8870;50.950;11.762;2024-02-21T12:51:20;98340.56;;;10.70;100.00
17505;BME280;8870;50.950;11.762;2024-02-21T12:56:51;98330.97;;;10.75;100.00
17505;BME280;8870;50.950;11.762;2024-02-21T13:02:09;98330.31;;;10.90;100.00
17505;BME280;8870;50.950;11.762;2024-02-21T13:07:44;98296.50;;;11.04;100.00
17505;BME280;8870;50.950;11.762;2024-02-21T13:13:04;98301.03;;;11.20;100.00
17505;BME280;8870;50.950;11.762;2024-02-21T13:18:35;98290.56;;;11.25;100.00
17505;BME280;8870;50.950;11.762;2024-02-21T13:23:56;98280.31;;;11.37;100.00
17505;BME280;8870;50.950;11.762;2024-02-21T13:29:28;98277.75;;;11.35;100.00
17505;BME280;8870;50.950;11.762;2024-02-21T13:34:48;98273.22;;;11.44;100.00
17505;BME280;8870;50.950;11.762;2024-02-21T13:40:18;98262.91;;;11.48;100.00
17505;BME280;8870;50.950;11.762;2024-02-21T13:45:55;98254.81;;;11.56;100.00
17505;BME280;8870;50.950;11.762;2024-02-21T13:51:14;98246.38;;;11.67;100.00
17505;BME280;8870;50.950;11.762;2024-02-21T13:56:49;98241.63;;;11.69;100.00
17505;BME280;8870;50.950;11.762;2024-02-21T14:02:22;98259.50;;;11.62;100.00
17505;BME280;8870;50.950;11.762;2024-02-21T14:07:42;98250.78;;;11.52;100.00
17505;BME280;8870;50.950;11.762;2024-02-21T14:13:18;98242.38;;;11.38;100.00
17505;BME280;8870;50.950;11.762;2024-02-21T14:18:37;98241.72;;;11.28;100.00
17505;BME280;8870;50.950;11.762;2024-02-21T14:24:08;98238.50;;;11.33;100.00
17505;BME280;8870;50.950;11.762;2024-02-21T14:29:30;98229.53;;;11.57;100.00
17505;BME280;8870;50.950;11.762;2024-02-21T14:35:01;98207.63;;;11.44;100.00
17505;BME280;8870;50.950;11.762;2024-02-21T14:40:19;98202.59;;;11.32;100.00
17505;BME280;8870;50.950;11.762;2024-02-21T14:45:55;98181.69;;;11.26;100.00
17505;BME280;8870;50.950;11.762;2024-02-21T14:51:13;98172.28;;;11.22;100.00
17505;BME280;8870;50.950;11.762;2024-02-21T14:56:44;98168.59;;;11.06;100.00
17505;BME280;8870;50.950;11.762;2024-02-21T15:02:06;98159.50;;;10.91;100.00
17505;BME280;8870;50.950;11.762;2024-02-21T15:07:38;98149.25;;;10.78;100.00
17505;BME280;8870;50.950;11.762;2024-02-21T15:12:57;98152.13;;;10.68;100.00
17505;BME280;8870;50.950;11.762;2024-02-21T15:18:31;98142.34;;;10.59;100.00
17505;BME280;8870;50.950;11.762;2024-02-21T15:23:54;98147.38;;;10.54;100.00
17505;BME280;8870;50.950;11.762;2024-02-21T15:29:25;98131.91;;;10.47;100.00
17505;BME280;8870;50.950;11.762;2024-02-21T15:34:52;98113.06;;;10.39;100.00
17505;BME280;8870;50.950;11.762;2024-02-21T15:40:25;98085.78;;;10.26;100.00
17505;BME280;8870;50.950;11.762;2024-02-21T15:45:43;98091.31;;;10.16;100.00
17505;BME280;8870;50.950;11.762;2024-02-21T15:51:17;98085.41;;;10.04;100.00
17505;BME280;8870;50.950;11.762;2024-02-21T15:56:35;98079.50;;;9.92;100.00
17505;BME280;8870;50.950;11.762;2024-02-21T16:02:07;98065.84;;;9.77;100.00
17505;BME280;8870;50.950;11.762;2024-02-21T16:07:28;98059.28;;;9.63;100.00
17505;BME280;8870;50.950;11.762;2024-02-21T16:12:59;98043.59;;;9.50;100.00
17505;BME280;8870;50.950;11.762;2024-02-21T16:18:17;98044.22;;;9.36;100.00
17505;BME280;8870;50.950;11.762;2024-02-21T16:23:53;98052.75;;;9.23;100.00
17505;BME280;8870;50.950;11.762;2024-02-21T16:29:11;98036.41;;;9.08;100.00
17505;BME280;8870;50.950;11.762;2024-02-21T16:34:44;98032.13;;;8.97;100.00
17505;BME280;8870;50.950;11.762;2024-02-21T16:40:06;98019.50;;;8.89;100.00
17505;BME280;8870;50.950;11.762;2024-02-21T16:45:40;98025.84;;;8.80;100.00
17505;BME280;8870;50.950;11.762;2024-02-21T16:50:59;98006.16;;;8.71;100.00
17505;BME280;8870;50.950;11.762;2024-02-21T16:56:34;97995.19;;;8.64;100.00
17505;BME280;8870;50.950;11.762;2024-02-21T17:01:52;97985.50;;;8.63;100.00
17505;BME280;8870;50.950;11.762;2024-02-21T17:07:24;97961.31;;;8.63;100.00
17505;BME280;8870;50.950;11.762;2024-02-21T17:12:45;97930.09;;;8.62;100.00
17505;BME280;8870;50.950;11.762;2024-02-21T17:18:16;97905.94;;;8.62;100.00
17505;BME280;8870;50.950;11.762;2024-02-21T17:23:34;97898.53;;;8.64;100.00
17505;BME280;8870;50.950;11.762;2024-02-21T17:29:08;97914.13;;;8.61;100.00
17505;BME280;8870;50.950;11.762;2024-02-21T17:34:28;97925.34;;;8.56;100.00
17505;BME280;8870;50.950;11.762;2024-02-21T17:40:00;97929.03;;;8.55;100.00
17505;BME280;8870;50.950;11.762;2024-02-21T17:45:22;97927.53;;;8.53;100.00
17505;BME280;8870;50.950;11.762;2024-02-21T17:50:54;97920.66;;;8.50;100.00
17505;BME280;8870;50.950;11.762;2024-02-21T17:56:13;97915.56;;;8.47;100.00
17505;BME280;8870;50.950;11.762;2024-02-21T18:01:48;97900.44;;;8.46;100.00
17505;BME280;8870;50.950;11.762;2024-02-21T18:07:06;97886.34;;;8.44;100.00
17505;BME280;8870;50.950;11.762;2024-02-21T18:12:39;97872.09;;;8.43;100.00
17505;BME280;8870;50.950;11.762;2024-02-21T18:18:00;97867.72;;;8.42;100.00
17505;BME280;8870;50.950;11.762;2024-02-21T18:23:31;97920.56;;;8.42;100.00
17505;BME280;8870;50.950;11.762;2024-02-21T18:28:52;97899.75;;;8.44;100.00
17505;BME280;8870;50.950;11.762;2024-02-21T18:34:27;97899.06;;;8.42;100.00
17505;BME280;8870;50.950;11.762;2024-02-21T18:39:45;97904.31;;;8.43;100.00
17505;BME280;8870;50.950;11.762;2024-02-21T18:45:17;97904.78;;;8.39;100.00
17505;BME280;8870;50.950;11.762;2024-02-21T18:50:38;97885.31;;;8.37;100.00
17505;BME280;8870;50.950;11.762;2024-02-21T18:56:09;97862.16;;;8.36;100.00
17505;BME280;8870;50.950;11.762;2024-02-21T19:01:41;97862.16;;;8.36;100.00
17505;BME280;8870;50.950;11.762;2024-02-21T19:07:02;97850.25;;;8.38;100.00
17505;BME280;8870;50.950;11.762;2024-02-21T19:12:33;97836.69;;;8.40;100.00
17505;BME280;8870;50.950;11.762;2024-02-21T19:17:52;97818.22;;;8.45;100.00
17505;BME280;8870;50.950;11.762;2024-02-21T19:23:26;97814.59;;;8.54;100.00
17505;BME280;8870;50.950;11.762;2024-02-21T19:28:44;97792.16;;;8.63;100.00
17505;BME280;8870;50.950;11.762;2024-02-21T19:34:15;97774.69;;;8.68;100.00
17505;BME280;8870;50.950;11.762;2024-02-21T19:39:36;97761.63;;;8.73;100.00
17505;BME280;8870;50.950;11.762;2024-02-21T19:45:08;97755.06;;;8.75;100.00
17505;BME280;8870;50.950;11.762;2024-02-21T19:50:26;97744.31;;;8.84;100.00
17505;BME280;8870;50.950;11.762;2024-02-21T19:56:03;97737.44;;;8.89;100.00
17505;BME280;8870;50.950;11.762;2024-02-21T20:01:23;97718.47;;;8.99;100.00
17505;BME280;8870;50.950;11.762;2024-02-21T20:06:54;97705.88;;;9.08;100.00
17505;BME280;8870;50.950;11.762;2024-02-21T20:12:17;97693.78;;;9.12;100.00
17505;BME280;8870;50.950;11.762;2024-02-21T20:17:48;97690.44;;;9.10;100.00
17505;BME280;8870;50.950;11.762;2024-02-21T20:23:06;97683.03;;;9.12;100.00
17505;BME280;8870;50.950;11.762;2024-02-21T20:28:40;97668.91;;;9.18;100.00
17505;BME280;8870;50.950;11.762;2024-02-21T20:33:58;97679.34;;;9.21;100.00
17505;BME280;8870;50.950;11.762;2024-02-21T20:39:29;97668.59;;;9.21;100.00
17505;BME280;8870;50.950;11.762;2024-02-21T20:44:50;97664.38;;;9.27;100.00
17505;BME280;8870;50.950;11.762;2024-02-21T20:50:21;97651.09;;;9.34;100.00
17505;BME280;8870;50.950;11.762;2024-02-21T20:55:40;97642.66;;;9.37;100.00
17505;BME280;8870;50.950;11.762;2024-02-21T21:01:14;97628.53;;;9.43;100.00
17505;BME280;8870;50.950;11.762;2024-02-21T21:06:33;97620.28;;;9.45;100.00
17505;BME280;8870;50.950;11.762;2024-02-21T21:12:05;97624.47;;;9.47;100.00
17505;BME280;8870;50.950;11.762;2024-02-21T21:17:26;97614.75;;;9.46;100.00
17505;BME280;8870;50.950;11.762;2024-02-21T21:22:57;97588.50;;;9.48;100.00
17505;BME280;8870;50.950;11.762;2024-02-21T21:28:15;97566.38;;;9.46;100.00
17505;BME280;8870;50.950;11.762;2024-02-21T21:33:50;97583.50;;;9.45;100.00
17505;BME280;8870;50.950;11.762;2024-02-21T21:39:09;97604.34;;;9.43;100.00
17505;BME280;8870;50.950;11.762;2024-02-21T21:44:41;97592.56;;;9.44;100.00
17505;BME280;8870;50.950;11.762;2024-02-21T21:50:02;97585.19;;;9.38;100.00
17505;BME280;8870;50.950;11.762;2024-02-21T21:55:34;97576.13;;;9.39;100.00
17505;BME280;8870;50.950;11.762;2024-02-21T22:00:53;97551.59;;;9.42;100.00
17505;BME280;8870;50.950;11.762;2024-02-21T22:06:27;97544.19;;;9.44;100.00
17505;BME280;8870;50.950;11.762;2024-02-21T22:11:46;97530.09;;;9.42;100.00
17505;BME280;8870;50.950;11.762;2024-02-21T22:17:17;97513.94;;;9.42;100.00
17505;BME280;8870;50.950;11.762;2024-02-21T22:22:38;97512.47;;;9.39;100.00
17505;BME280;8870;50.950;11.762;2024-02-21T22:28:09;97490.75;;;9.41;100.00
17505;BME280;8870;50.950;11.762;2024-02-21T22:33:27;97477.31;;;9.41;100.00
17505;BME280;8870;50.950;11.762;2024-02-21T22:39:01;97463.88;;;9.41;100.00
17505;BME280;8870;50.950;11.762;2024-02-21T22:44:19;97478.00;;;9.43;100.00
17505;BME280;8870;50.950;11.762;2024-02-21T22:49:50;97462.53;;;9.45;100.00
17505;BME280;8870;50.950;11.762;2024-02-21T22:55:11;97457.78;;;9.47;100.00
17505;BME280;8870;50.950;11.762;2024-02-21T23:00:42;97438.34;;;9.45;100.00
17505;BME280;8870;50.950;11.762;2024-02-21T23:06:13;97433.50;;;9.40;100.00
17505;BME280;8870;50.950;11.762;2024-02-21T23:11:34;97416.50;;;9.40;100.00
17505;BME280;8870;50.950;11.762;2024-02-21T23:17:05;97389.44;;;9.41;100.00
17505;BME280;8870;50.950;11.762;2024-02-21T23:22:23;97371.13;;;9.45;100.00
17505;BME280;8870;50.950;11.762;2024-02-21T23:27:57;97353.25;;;9.52;100.00
17505;BME280;8870;50.950;11.762;2024-02-21T23:33:15;97334.53;;;9.59;100.00
17505;BME280;8870;50.950;11.762;2024-02-21T23:38:54;97343.72;;;9.65;100.00
17505;BME280;8870;50.950;11.762;2024-02-21T23:44:15;97327.78;;;9.63;100.00
17505;BME280;8870;50.950;11.762;2024-02-21T23:49:46;97315.91;;;9.58;100.00
17505;BME280;8870;50.950;11.762;2024-02-21T23:55:04;97311.69;;;9.40;100.00
